• Join FlightAware (Why Join?)
  • Login
  • US Flag 
10:50PM EDT


 

Airport Tracker/Info


-or-


 

Live Flight TrackerFlight Track Log ✈ AKX1729 ✈ 18-Jul-2013 ✈ ROAH / OKA - ROMY / MMY

Flight Track Log - Related Links

Times and Time Zones

All times are in EDT time to prevent confusion due to time zone crossing. See the AKX1729 flight status page for this flight to view local times or setup timezone preferences in your user account.

Time Position Orientation Groundspeed Altitude Reporting Facility
EDT Latitude Longitude Course Direction KTS MPH feet Rate Location/Type
05:18AM 26.0350 127.3723 237° Southwest  Level Estimated
05:19AM 25.9813 127.2813 237° Southwest  Level Estimated
05:20AM 25.9275 127.1903 237° Southwest  Level Estimated
05:21AM 25.8737 127.0995 237° Southwest  Level Estimated
05:22AM 25.8198 127.0087 237° Southwest  Level Estimated
05:23AM 25.7659 126.9180 237° Southwest  Level Estimated
05:24AM 25.7119 126.8274 237° Southwest  Level Estimated
05:25AM 25.6578 126.7368 236° Southwest  Level Estimated
05:26AM 25.6037 126.6464 236° Southwest  Level Estimated
05:27AM 25.5495 126.5560 236° Southwest  Level Estimated
05:28AM 25.4953 126.4658 236° Southwest  Level Estimated
05:29AM 25.4410 126.3755 236° Southwest  Level Estimated
05:30AM 25.3867 126.2854 236° Southwest  Level Estimated
05:31AM 25.3323 126.1954 236° Southwest  Level Estimated
05:32AM 25.2779 126.1054 236° Southwest  Level Estimated
05:33AM 25.2234 126.0155 236° Southwest  Level Estimated
05:34AM 25.1688 125.9258 236° Southwest  Level Estimated
05:35AM 25.1142 125.8360 236° Southwest  Level Estimated
05:36AM 25.0596 125.7464 236° Southwest  Level Estimated
05:37AM 25.0049 125.6568 236° Southwest  Level Estimated
05:38AM 24.9501 125.5674 236° Southwest  Level Estimated
05:39AM 24.8953 125.4780 236° Southwest  Level Estimated
05:40AM 24.8404 125.3886 236° Southwest  Level Estimated
05:41AM 24.7855 125.2994 236° Southwest  Level Estimated
05:42AM 24.7828 125.2951 236° Southwest  Level Estimated
05:43AM 24.7828 125.2951 17° North  Level Estimated
05:44AM 24.7828 125.2951 17° North  Level Estimated
05:45AM 24.7828 125.2951 17° North  Level Estimated
05:46AM 24.7828 125.2951 17° North  Level Estimated
05:47AM 24.7828 125.2951 17° North  Level Estimated
05:48AM 24.7828 125.2951 17° North  Level Estimated
05:49AM 24.7828 125.2951 17° North  Level Estimated
05:50AM 24.7828 125.2951 17° North  Level Estimated
05:51AM 24.7828 125.2951 17° North  Level Estimated
05:52AM 24.7828 125.2951 17° North  Level Estimated